createdAt,value
2022-09-12T00:01:06.514Z,14.75
2022-09-12T00:06:14.185Z,16.30
2022-09-12T00:11:17.852Z,16.70
2022-09-12T00:16:23.557Z,14.60
2022-09-12T00:21:28.456Z,15.95
2022-09-12T00:26:32.705Z,14.93
2022-09-12T00:31:36.374Z,14.10
2022-09-12T00:36:41.533Z,19.55
2022-09-12T00:41:45.632Z,14.70
2022-09-12T00:46:52.361Z,17.80
2022-09-12T00:52:04.410Z,14.52
2022-09-12T00:57:12.668Z,12.93
2022-09-12T01:02:16.374Z,16.25
2022-09-12T01:07:22.827Z,16.50
2022-09-12T01:12:26.900Z,18.60
2022-09-12T01:17:37.399Z,19.38
2022-09-12T01:23:25.572Z,19.73
2022-09-12T01:28:49.910Z,19.00
2022-09-12T01:34:09.628Z,17.85
2022-09-12T01:39:27.230Z,14.63
2022-09-12T01:44:40.425Z,18.27
2022-09-12T01:49:52.062Z,16.75
2022-09-12T01:55:00.291Z,17.58
2022-09-12T02:00:10.664Z,17.13
2022-09-12T02:05:29.451Z,21.70
2022-09-12T02:10:38.235Z,19.92
2022-09-12T02:15:46.024Z,18.52
2022-09-12T02:20:53.200Z,21.00
2022-09-12T02:26:01.580Z,20.25
2022-09-12T02:31:12.390Z,20.60
2022-09-12T02:36:29.635Z,22.88
2022-09-12T02:41:33.099Z,21.98
2022-09-12T02:46:42.137Z,20.08
2022-09-12T02:51:47.836Z,25.55
2022-09-12T02:56:51.258Z,22.23
2022-09-12T03:02:07.125Z,19.92
2022-09-12T03:07:18.024Z,17.90
2022-09-12T03:12:39.559Z,20.05
2022-09-12T03:17:59.363Z,26.88
2022-09-12T03:23:08.245Z,19.50
2022-09-12T03:28:15.179Z,27.23
2022-09-12T03:33:20.547Z,25.17
2022-09-12T03:38:25.333Z,23.15
2022-09-12T03:43:28.779Z,25.20
2022-09-12T03:48:32.809Z,21.50
2022-09-12T03:53:37.795Z,21.48
2022-09-12T03:58:41.982Z,21.20
2022-09-12T04:03:46.914Z,24.27
2022-09-12T04:08:53.613Z,26.33
2022-09-12T04:13:57.088Z,25.08
2022-09-12T04:19:00.617Z,21.92
2022-09-12T04:24:05.593Z,26.30
2022-09-12T04:29:10.079Z,22.65
2022-09-12T04:34:13.601Z,25.60
2022-09-12T04:39:18.435Z,28.70
2022-09-12T04:44:21.889Z,22.95
2022-09-12T04:49:25.302Z,23.90
2022-09-12T04:54:30.210Z,22.60
2022-09-12T04:59:33.636Z,27.77
2022-09-12T05:04:37.058Z,31.42
2022-09-12T05:09:42.000Z,25.30
2022-09-12T05:14:45.488Z,27.20
2022-09-12T05:19:49.482Z,32.00
2022-09-12T05:24:54.232Z,25.75
2022-09-12T05:29:57.678Z,32.40
2022-09-12T05:35:01.408Z,29.55
2022-09-12T05:40:08.615Z,33.38
2022-09-12T05:45:12.120Z,34.92
2022-09-12T05:50:15.880Z,32.15
2022-09-12T05:55:20.663Z,32.33
2022-09-12T06:00:24.110Z,36.17
2022-09-12T06:05:27.580Z,34.10
2022-09-12T06:10:32.746Z,29.75
2022-09-12T06:15:36.216Z,38.22
2022-09-12T06:20:39.609Z,31.50
2022-09-12T06:25:49.946Z,35.97
2022-09-12T06:30:54.028Z,27.00
2022-09-12T06:35:57.514Z,41.78
2022-09-12T06:41:05.652Z,40.25
2022-09-12T06:46:09.820Z,44.08
2022-09-12T06:51:15.229Z,43.15
2022-09-12T06:56:22.653Z,43.78
2022-09-12T07:01:28.165Z,39.90
2022-09-12T07:06:37.220Z,36.60
2022-09-12T07:11:42.933Z,44.53
2022-09-12T07:16:46.559Z,45.72
2022-09-12T07:21:50.183Z,50.00
2022-09-12T07:26:55.067Z,54.25
2022-09-12T07:31:58.925Z,47.30
2022-09-12T07:37:02.574Z,52.78
2022-09-12T07:42:08.134Z,43.05
2022-09-12T07:47:11.996Z,51.17
2022-09-12T07:52:15.570Z,45.45
2022-09-12T07:57:20.544Z,43.17
2022-09-12T08:02:24.213Z,46.85
2022-09-12T08:07:27.814Z,45.88
2022-09-12T08:12:34.768Z,34.85
2022-09-12T08:17:38.344Z,37.60
2022-09-12T08:22:42.461Z,34.65
2022-09-12T08:27:48.442Z,33.28
2022-09-12T08:32:51.993Z,28.92
2022-09-12T08:37:55.594Z,33.90
2022-09-12T08:43:08.615Z,29.48
2022-09-12T08:48:13.670Z,30.33
2022-09-12T08:53:22.560Z,30.35
2022-09-12T08:58:30.092Z,29.50
2022-09-12T09:03:55.292Z,30.52
2022-09-12T09:09:08.184Z,29.23
2022-09-12T09:14:51.987Z,25.92
2022-09-12T09:20:04.681Z,24.67
2022-09-12T09:25:22.084Z,24.30
2022-09-12T09:30:28.832Z,18.05
2022-09-12T09:35:42.912Z,63.95
2022-09-12T09:40:57.769Z,17.83
2022-09-12T09:46:02.624Z,14.68
2022-09-12T09:51:09.406Z,15.63
2022-09-12T09:56:23.150Z,12.65
2022-09-12T10:01:29.198Z,13.88
2022-09-12T10:06:34.542Z,14.07
2022-09-12T10:11:43.689Z,12.07
2022-09-12T10:16:53.670Z,14.13
2022-09-12T10:21:57.649Z,12.10
2022-09-12T10:27:10.032Z,12.23
2022-09-12T10:32:26.349Z,13.63
2022-09-12T10:37:39.676Z,11.07
2022-09-12T10:42:49.218Z,11.93
2022-09-12T10:47:55.020Z,10.98
2022-09-12T10:53:16.476Z,10.60
2022-09-12T10:58:37.624Z,9.95
2022-09-12T11:04:01.601Z,8.93
2022-09-12T11:09:11.664Z,7.75
2022-09-12T11:14:28.114Z,6.83
2022-09-12T11:19:49.977Z,9.75
2022-09-12T11:25:15.013Z,6.82
2022-09-12T11:30:19.351Z,4.85
2022-09-12T11:35:28.972Z,5.10
2022-09-12T11:40:39.576Z,4.35
2022-09-12T11:45:46.067Z,9.05
2022-09-12T11:50:52.436Z,5.22
2022-09-12T11:56:00.621Z,5.07
2022-09-12T12:01:14.061Z,4.68
2022-09-12T12:06:22.729Z,4.50
2022-09-12T12:11:30.476Z,5.00
2022-09-12T12:16:36.084Z,4.50
2022-09-12T12:21:43.136Z,5.43
2022-09-12T12:26:57.535Z,3.92
2022-09-12T12:32:33.998Z,3.95
2022-09-12T12:37:56.727Z,3.00
2022-09-12T12:43:06.082Z,2.83
2022-09-12T12:48:12.936Z,3.70
2022-09-12T12:53:23.142Z,3.28
2022-09-12T12:58:32.937Z,4.03
2022-09-12T13:03:38.483Z,3.30
2022-09-12T13:08:56.513Z,4.88
2022-09-12T13:14:01.872Z,4.90
2022-09-12T13:19:08.363Z,3.80
2022-09-12T13:24:18.956Z,3.20
2022-09-12T13:29:24.841Z,2.85
2022-09-12T13:34:32.154Z,3.55
2022-09-12T13:39:47.428Z,8.13
2022-09-12T13:44:54.475Z,3.38
2022-09-12T13:49:59.129Z,3.60
2022-09-12T13:55:09.518Z,3.45
2022-09-12T14:00:20.139Z,3.47
2022-09-12T14:10:34.070Z,2.92
2022-09-12T14:15:38.567Z,3.47
2022-09-12T14:20:43.009Z,2.90
2022-09-12T14:25:49.412Z,3.20
2022-09-12T14:31:03.184Z,2.90
2022-09-12T14:36:13.269Z,2.75
2022-09-12T14:41:27.286Z,3.30
2022-09-12T14:46:35.165Z,3.13
2022-09-12T14:51:41.737Z,3.58
2022-09-12T14:56:56.046Z,2.60
2022-09-12T15:02:26.792Z,2.45
2022-09-12T15:12:38.865Z,2.78
2022-09-12T15:17:42.708Z,2.30
2022-09-12T15:22:46.466Z,2.50
2022-09-12T15:27:53.854Z,2.83
2022-09-12T15:33:00.037Z,3.15
2022-09-12T15:38:03.593Z,3.05
2022-09-12T15:43:08.494Z,3.08
2022-09-12T15:48:12.055Z,2.58
2022-09-12T15:53:17.681Z,3.30
2022-09-12T15:58:22.485Z,3.63
2022-09-12T16:03:28.704Z,3.67
2022-09-12T16:08:33.277Z,3.40
2022-09-12T16:13:38.184Z,2.85
2022-09-12T16:18:41.868Z,2.80
2022-09-12T16:23:45.926Z,3.08
2022-09-12T16:28:55.940Z,3.10
2022-09-12T16:33:59.492Z,2.87
2022-09-12T16:39:03.017Z,8.07
2022-09-12T16:44:08.022Z,3.58
2022-09-12T16:49:12.078Z,3.20
2022-09-12T16:54:15.851Z,2.97
2022-09-12T16:59:20.909Z,2.95
2022-09-12T17:04:24.722Z,3.03
2022-09-12T17:09:29.484Z,2.90
2022-09-12T17:14:34.522Z,3.00
2022-09-12T17:19:38.114Z,2.67
2022-09-12T17:24:42.093Z,2.88
2022-09-12T17:29:46.986Z,3.15
2022-09-12T17:34:50.450Z,2.95
2022-09-12T17:39:53.974Z,3.47
2022-09-12T17:44:59.359Z,2.90
2022-09-12T17:50:30.033Z,3.22
2022-09-12T17:55:26.295Z,3.33
2022-09-12T18:00:46.109Z,3.63
2022-09-12T18:05:50.554Z,3.63
2022-09-12T18:10:54.030Z,3.72
2022-09-12T18:16:04.085Z,2.95
2022-09-12T18:21:09.474Z,3.57
2022-09-12T18:26:14.861Z,3.10
2022-09-12T18:31:22.123Z,4.00
2022-09-12T18:36:25.736Z,3.83
2022-09-12T18:41:29.827Z,3.67
2022-09-12T18:46:36.045Z,3.50
2022-09-12T18:51:41.929Z,3.67
2022-09-12T18:56:45.962Z,4.43
2022-09-12T19:01:51.221Z,4.38
2022-09-12T19:06:54.914Z,4.45
2022-09-12T19:11:58.671Z,3.67
2022-09-12T19:17:03.653Z,4.82
2022-09-12T19:22:07.405Z,4.88
2022-09-12T19:27:13.098Z,5.18
2022-09-12T19:32:18.049Z,4.55
2022-09-12T19:37:21.489Z,5.88
2022-09-12T19:42:25.070Z,6.20
2022-09-12T19:47:29.957Z,5.57
2022-09-12T19:52:34.982Z,5.30
2022-09-12T19:57:38.461Z,5.43
2022-09-12T20:02:43.535Z,6.93
2022-09-12T20:07:47.631Z,4.97
2022-09-12T20:12:51.337Z,6.13
2022-09-12T20:17:56.829Z,6.20
2022-09-12T20:23:00.279Z,6.22
2022-09-12T20:28:03.731Z,5.93
2022-09-12T20:33:08.618Z,7.43
2022-09-12T20:38:12.386Z,6.50
2022-09-12T20:43:16.046Z,5.53
2022-09-12T20:48:21.120Z,6.70
2022-09-12T20:53:24.926Z,7.43
2022-09-12T20:58:28.357Z,8.27
2022-09-12T21:03:33.414Z,7.68
2022-09-12T21:08:38.375Z,7.20
2022-09-12T21:13:42.202Z,8.55
2022-09-12T21:18:47.643Z,8.27
2022-09-12T21:23:51.763Z,7.63
2022-09-12T21:28:55.239Z,8.95
2022-09-12T21:34:00.175Z,8.07
2022-09-12T21:39:03.643Z,8.82
2022-09-12T21:44:07.417Z,9.20
2022-09-12T21:49:12.227Z,7.63
2022-09-12T21:54:16.083Z,8.95
2022-09-12T21:59:19.597Z,7.70
2022-09-12T22:04:24.352Z,7.35
2022-09-12T22:09:28.060Z,7.32
2022-09-12T22:14:31.519Z,7.97
2022-09-12T22:19:37.756Z,7.70
2022-09-12T22:24:41.133Z,7.15
2022-09-12T22:29:46.206Z,6.32
2022-09-12T22:34:51.077Z,9.40
2022-09-12T22:39:55.013Z,7.40
2022-09-12T22:44:58.481Z,8.63
2022-09-12T22:50:03.313Z,9.27
2022-09-12T22:55:07.184Z,9.20
2022-09-12T23:00:11.753Z,9.20
2022-09-12T23:05:16.944Z,7.50
2022-09-12T23:10:20.510Z,6.55
2022-09-12T23:15:23.993Z,10.95
2022-09-12T23:20:29.064Z,8.25
2022-09-12T23:25:32.544Z,11.63
2022-09-12T23:30:37.998Z,10.15
2022-09-12T23:35:42.997Z,10.52
2022-09-12T23:40:46.419Z,9.07
2022-09-12T23:45:49.861Z,10.65
2022-09-12T23:50:55.563Z,10.98
2022-09-12T23:55:59.539Z,9.43
